Terminal Aerodrome Forecast
Issued by NWS Rapid City, SD

Home | Current Version | Previous Version | Text Only | Print | Product List | Glossary Off
Versions: 1 2 3 4 5 6 7 8 9 10 11 12 13 14 15 16 17 18 19 20 21

452
FTUS43 KUNR 301407 AAB
TAFRAP
TAF AMD
KRAP 301407Z 3014/3112 13005KT 1/4SM FG VV001
     FM301600 14009KT 1/2SM FG BKN001
     FM301700 17007KT P6SM SKC
     FM302300 16008KT P6SM SCT100=

USA.gov is the U.S. government's official web portal to all federal, state and local government web resources and services.